createdAt,value
2019-04-22T00:02:26.422Z,4.90
2019-04-22T00:05:07.264Z,4.90
2019-04-22T00:07:51.452Z,4.90
2019-04-22T00:10:30.921Z,4.90
2019-04-22T00:12:52.928Z,4.80
2019-04-22T00:15:15.519Z,4.80
2019-04-22T00:20:22.606Z,4.70
2019-04-22T00:22:52.037Z,4.60
2019-04-22T00:25:26.659Z,4.60
2019-04-22T00:28:00.856Z,4.60
2019-04-22T00:30:22.050Z,4.60
2019-04-22T00:33:07.931Z,4.50
2019-04-22T00:35:35.514Z,4.50
2019-04-22T00:38:11.095Z,4.50
2019-04-22T00:40:39.326Z,4.40
2019-04-22T00:43:15.442Z,4.40
2019-04-22T00:48:18.831Z,4.30
2019-04-22T00:50:46.069Z,4.30
2019-04-22T00:53:16.327Z,4.30
2019-04-22T00:56:00.538Z,4.30
2019-04-22T00:58:31.179Z,4.30
2019-04-22T01:01:04.661Z,4.20
2019-04-22T01:03:34.276Z,4.20
2019-04-22T01:06:03.476Z,4.10
2019-04-22T01:08:39.091Z,4.00
2019-04-22T01:11:10.275Z,4.00
2019-04-22T01:13:34.365Z,3.90
2019-04-22T01:16:04.491Z,3.90
2019-04-22T01:18:27.949Z,3.90
2019-04-22T01:23:32.587Z,3.70
2019-04-22T01:25:56.971Z,3.70
2019-04-22T01:28:25.377Z,3.70
2019-04-22T01:30:51.019Z,3.70
2019-04-22T01:33:21.055Z,3.60
2019-04-22T01:36:06.296Z,3.60
2019-04-22T01:38:31.405Z,3.60
2019-04-22T01:41:16.398Z,3.60
2019-04-22T01:43:54.350Z,3.60
2019-04-22T01:46:13.831Z,3.50
2019-04-22T01:48:39.312Z,3.40
2019-04-22T01:51:07.597Z,3.40
2019-04-22T01:53:43.053Z,3.40
2019-04-22T01:56:13.561Z,3.40
2019-04-22T01:58:33.250Z,3.40
2019-04-22T02:01:14.702Z,3.40
2019-04-22T02:03:46.769Z,3.40
2019-04-22T02:06:13.681Z,3.30
2019-04-22T02:08:44.961Z,3.30
2019-04-22T02:11:20.742Z,3.30
2019-04-22T02:13:47.868Z,3.20
2019-04-22T02:16:14.225Z,3.10
2019-04-22T02:18:44.869Z,3.10
2019-04-22T02:21:09.373Z,3.00
2019-04-22T02:23:47.075Z,3.00
2019-04-22T02:26:15.614Z,3.00
2019-04-22T02:28:40.046Z,2.90
2019-04-22T02:31:25.973Z,2.90
2019-04-22T02:36:22.921Z,2.90
2019-04-22T02:46:49.615Z,2.80
2019-04-22T02:56:27.518Z,2.60
2019-04-22T02:59:08.468Z,2.60
2019-04-22T03:06:33.896Z,2.50
2019-04-22T03:18:57.115Z,2.30
2019-04-22T03:21:17.944Z,2.30
2019-04-22T03:31:57.915Z,2.20
2019-04-22T03:34:38.673Z,2.20
2019-04-22T03:39:20.345Z,2.20
2019-04-22T03:42:00.542Z,2.20
2019-04-22T03:44:18.795Z,2.20
2019-04-22T03:46:30.379Z,2.20
2019-04-22T03:49:14.786Z,2.20
2019-04-22T03:57:08.011Z,2.10
2019-04-22T03:59:08.762Z,2.00
2019-04-22T04:06:41.621Z,2.00
2019-04-22T04:09:11.963Z,2.00
2019-04-22T04:11:43.125Z,2.00
2019-04-22T04:14:12.024Z,2.00
2019-04-22T04:16:45.974Z,2.00
2019-04-22T04:19:21.192Z,2.00
2019-04-22T04:24:24.035Z,2.00
2019-04-22T04:27:03.295Z,2.00
2019-04-22T04:29:32.593Z,2.00
2019-04-22T04:31:41.306Z,2.00
2019-04-22T04:34:32.665Z,2.00
2019-04-22T04:36:34.112Z,2.00
2019-04-22T04:39:05.426Z,2.00
2019-04-22T04:41:42.023Z,2.10
2019-04-22T04:51:37.682Z,2.20
2019-04-22T04:54:26.241Z,2.20
2019-04-22T04:56:46.954Z,2.20
2019-04-22T05:06:42.968Z,2.60
2019-04-22T05:09:14.620Z,2.70
2019-04-22T05:11:50.272Z,2.70
2019-04-22T05:16:41.077Z,2.90
2019-04-22T05:19:07.510Z,2.90
2019-04-22T05:21:31.041Z,3.00
2019-04-22T05:24:15.009Z,3.00
2019-04-22T05:26:52.395Z,3.10
2019-04-22T05:29:06.620Z,3.20
2019-04-22T05:31:38.982Z,3.20
2019-04-22T05:34:04.392Z,3.30
2019-04-22T05:36:34.495Z,3.40
2019-04-22T05:39:06.009Z,3.40
2019-04-22T05:41:35.358Z,3.50
2019-04-22T05:44:02.835Z,3.60
2019-04-22T05:46:34.561Z,3.60
2019-04-22T05:49:07.152Z,3.70
2019-04-22T05:51:38.556Z,3.80
2019-04-22T05:54:13.100Z,3.90
2019-04-22T05:56:37.491Z,4.00
2019-04-22T05:59:03.797Z,4.10
2019-04-22T06:01:48.797Z,4.20
2019-04-22T06:04:11.403Z,4.30
2019-04-22T06:06:31.925Z,4.40
2019-04-22T06:09:03.964Z,4.50
2019-04-22T06:14:07.850Z,4.70
2019-04-22T06:16:44.260Z,4.90
2019-04-22T06:19:13.739Z,5.00
2019-04-22T06:21:44.694Z,5.20
2019-04-22T06:24:27.597Z,5.40
2019-04-22T06:26:53.528Z,5.60
2019-04-22T06:29:16.474Z,5.80
2019-04-22T06:34:17.726Z,6.20
2019-04-22T06:39:26.084Z,6.70
2019-04-22T06:41:49.902Z,6.90
2019-04-22T06:44:22.695Z,7.20
2019-04-22T06:46:49.107Z,7.40
2019-04-22T06:49:17.385Z,7.70
2019-04-22T06:51:46.813Z,7.90
2019-04-22T06:54:17.595Z,8.30
2019-04-22T06:56:50.665Z,8.60
2019-04-22T06:59:18.378Z,8.90
2019-04-22T07:01:49.996Z,9.20
2019-04-22T07:04:16.710Z,9.50
2019-04-22T07:06:49.905Z,9.80
2019-04-22T07:09:28.818Z,10.10
2019-04-22T07:11:43.300Z,10.50
2019-04-22T07:14:32.024Z,10.70
2019-04-22T07:16:54.499Z,11.00
2019-04-22T07:19:26.568Z,11.30
2019-04-22T07:21:55.341Z,11.60
2019-04-22T07:26:51.125Z,12.30
2019-04-22T07:29:21.798Z,12.60
2019-04-22T07:31:49.874Z,12.90
2019-04-22T07:34:33.276Z,13.10
2019-04-22T07:39:23.122Z,13.60
2019-04-22T07:41:51.405Z,13.80
2019-04-22T07:47:00.898Z,14.10
2019-04-22T07:49:26.679Z,14.30
2019-04-22T07:51:49.588Z,14.40
2019-04-22T07:54:24.414Z,14.60
2019-04-22T07:56:54.969Z,14.80
2019-04-22T07:59:24.483Z,15.00
2019-04-22T08:01:53.707Z,15.20
2019-04-22T08:04:45.652Z,15.40
2019-04-22T08:14:24.746Z,16.00
2019-04-22T08:17:01.042Z,16.10
2019-04-22T08:19:29.578Z,16.20
2019-04-22T08:21:52.144Z,16.40
2019-04-22T08:24:22.398Z,16.50
2019-04-22T08:26:53.087Z,16.60
2019-04-22T08:29:25.420Z,16.60
2019-04-22T08:31:58.042Z,16.70
2019-04-22T08:39:25.510Z,17.10
2019-04-22T08:41:49.413Z,17.20
2019-04-22T08:44:49.636Z,17.20
2019-04-22T08:46:57.897Z,17.40
2019-04-22T08:49:21.782Z,17.50
2019-04-22T08:51:58.830Z,17.60
2019-04-22T08:54:24.526Z,17.70
2019-04-22T08:56:56.874Z,17.90
2019-04-22T08:59:22.140Z,18.00
2019-04-22T09:01:59.647Z,18.10
2019-04-22T09:04:22.841Z,18.20
2019-04-22T09:07:12.509Z,18.30
2019-04-22T09:09:27.038Z,18.40
2019-04-22T09:12:14.318Z,18.50
2019-04-22T09:14:32.497Z,18.60
2019-04-22T09:16:58.095Z,18.70
2019-04-22T09:19:40.527Z,18.80
2019-04-22T09:22:00.527Z,19.00
2019-04-22T09:24:30.353Z,19.10
2019-04-22T09:26:58.766Z,19.20
2019-04-22T09:29:36.781Z,19.30
2019-04-22T09:32:09.422Z,19.40
2019-04-22T09:34:27.754Z,19.50
2019-04-22T09:37:08.183Z,19.60
2019-04-22T09:42:02.522Z,19.80
2019-04-22T09:44:38.949Z,19.90
2019-04-22T09:46:59.940Z,20.10
2019-04-22T09:49:43.313Z,20.30
2019-04-22T09:52:04.633Z,20.40
2019-04-22T09:54:39.953Z,20.60
2019-04-22T09:57:01.830Z,20.70
2019-04-22T09:59:35.300Z,20.90
2019-04-22T10:04:33.008Z,21.20
2019-04-22T10:07:04.306Z,21.40
2019-04-22T10:09:53.123Z,21.50
2019-04-22T10:12:02.661Z,21.70
2019-04-22T10:14:40.895Z,21.80
2019-04-22T10:17:21.859Z,21.90
2019-04-22T10:19:35.850Z,22.10
2019-04-22T10:22:08.524Z,22.20
2019-04-22T10:24:31.941Z,22.30
2019-04-22T10:27:07.753Z,22.40
2019-04-22T10:29:43.448Z,22.50
2019-04-22T10:32:08.440Z,22.50
2019-04-22T10:34:26.320Z,22.50
2019-04-22T10:36:45.194Z,22.50
2019-04-22T10:39:12.731Z,22.50
2019-04-22T10:41:41.235Z,22.50
2019-04-22T10:44:10.932Z,22.50
2019-04-22T10:46:40.221Z,22.50
2019-04-22T10:49:08.676Z,22.50
2019-04-22T10:51:37.110Z,22.60
2019-04-22T10:54:05.695Z,22.60
2019-04-22T10:56:34.850Z,22.70
2019-04-22T10:59:04.715Z,22.80
2019-04-22T11:01:33.866Z,22.80
2019-04-22T11:04:03.355Z,22.90
2019-04-22T11:06:33.686Z,22.90
2019-04-22T11:09:04.960Z,22.90
2019-04-22T11:11:44.475Z,22.90
2019-04-22T11:14:04.119Z,23.00
2019-04-22T11:16:32.878Z,23.10
2019-04-22T11:19:01.464Z,23.20
2019-04-22T11:21:30.028Z,23.30
2019-04-22T11:23:58.720Z,23.40
2019-04-22T11:26:28.261Z,23.50
2019-04-22T11:28:56.874Z,23.40
2019-04-22T11:31:26.448Z,23.40
2019-04-22T11:33:56.499Z,23.30
2019-04-22T11:36:28.651Z,23.30
2019-04-22T11:39:00.327Z,23.30
2019-04-22T11:41:25.926Z,23.40
2019-04-22T11:43:54.343Z,23.50
2019-04-22T11:46:23.145Z,23.60
2019-04-22T11:48:51.980Z,23.70
2019-04-22T11:51:22.026Z,23.70
2019-04-22T11:53:52.401Z,23.70
2019-04-22T11:56:20.953Z,23.60
2019-04-22T11:58:50.715Z,23.50
2019-04-22T12:01:20.709Z,23.40
2019-04-22T12:03:49.683Z,23.40
2019-04-22T12:06:18.150Z,23.40
2019-04-22T12:08:47.767Z,23.40
2019-04-22T12:11:16.705Z,23.40
2019-04-22T12:13:46.354Z,23.50
2019-04-22T12:16:17.014Z,23.70
2019-04-22T12:18:47.122Z,23.80
2019-04-22T12:21:17.074Z,24.00
2019-04-22T12:23:45.642Z,24.20
2019-04-22T12:26:18.872Z,24.50
2019-04-22T12:28:44.922Z,24.80
2019-04-22T12:31:13.642Z,25.20
2019-04-22T12:33:43.310Z,25.60
2019-04-22T12:36:12.776Z,25.90
2019-04-22T12:38:41.833Z,26.20
2019-04-22T12:41:12.118Z,26.40
2019-04-22T12:43:40.994Z,26.50
2019-04-22T12:46:10.219Z,26.60
2019-04-22T12:48:39.283Z,26.70
2019-04-22T12:51:09.077Z,26.80
2019-04-22T12:53:40.443Z,27.00
2019-04-22T12:56:09.187Z,27.30
2019-04-22T12:58:38.088Z,27.50
2019-04-22T13:01:06.836Z,27.60
2019-04-22T13:03:36.113Z,27.80
2019-04-22T13:06:05.930Z,27.90
2019-04-22T13:08:35.742Z,28.10
2019-04-22T13:11:10.367Z,28.20
2019-04-22T13:13:34.689Z,28.30
2019-04-22T13:16:04.621Z,28.50
2019-04-22T13:18:39.998Z,28.60
2019-04-22T13:21:04.606Z,28.60
2019-04-22T13:23:34.055Z,28.60
2019-04-22T13:26:03.051Z,28.50
2019-04-22T13:28:31.552Z,28.40
2019-04-22T13:31:01.929Z,28.30
2019-04-22T13:33:30.616Z,28.20
2019-04-22T13:35:59.613Z,28.00
2019-04-22T13:38:29.076Z,27.80
2019-04-22T13:41:07.247Z,27.50
2019-04-22T13:43:29.079Z,27.20
2019-04-22T13:45:58.396Z,26.90
2019-04-22T13:48:46.907Z,26.60
2019-04-22T13:56:22.199Z,26.10
2019-04-22T13:58:43.140Z,26.00
2019-04-22T14:01:00.731Z,26.00
2019-04-22T14:03:56.491Z,26.10
2019-04-22T14:06:25.136Z,26.30
2019-04-22T14:08:53.549Z,26.40
2019-04-22T14:11:34.478Z,26.40
2019-04-22T14:13:52.330Z,26.30
2019-04-22T14:16:20.726Z,26.30
2019-04-22T14:18:49.762Z,26.10
2019-04-22T14:21:18.810Z,26.10
2019-04-22T14:23:48.421Z,26.00
2019-04-22T14:26:17.584Z,26.00
2019-04-22T14:28:46.022Z,25.90
2019-04-22T14:31:14.847Z,25.80
2019-04-22T14:33:46.555Z,25.70
2019-04-22T14:36:15.123Z,25.60
2019-04-22T14:38:43.943Z,25.50
2019-04-22T14:41:34.362Z,25.50
2019-04-22T14:44:47.166Z,25.50
2019-04-22T14:46:47.803Z,25.40
2019-04-22T14:49:02.678Z,25.40
2019-04-22T14:51:32.915Z,25.30
2019-04-22T14:54:01.420Z,25.30
2019-04-22T14:56:13.767Z,25.30
2019-04-22T14:58:42.723Z,25.30
2019-04-22T15:01:12.878Z,25.50
2019-04-22T15:03:44.034Z,25.70
2019-04-22T15:06:12.618Z,25.80
2019-04-22T15:08:42.592Z,26.00
2019-04-22T15:11:11.137Z,26.10
2019-04-22T15:13:41.116Z,26.20
2019-04-22T15:16:11.870Z,26.20
2019-04-22T15:18:42.261Z,26.10
2019-04-22T15:21:12.363Z,26.00
2019-04-22T15:23:42.436Z,25.90
2019-04-22T15:26:10.997Z,25.80
2019-04-22T15:28:39.634Z,25.90
2019-04-22T15:31:09.132Z,26.00
2019-04-22T15:33:39.241Z,26.10
2019-04-22T15:36:08.135Z,26.10
2019-04-22T15:38:36.640Z,26.30
2019-04-22T15:41:06.858Z,26.40
2019-04-22T15:43:37.037Z,26.70
2019-04-22T15:46:05.826Z,27.00
2019-04-22T15:48:35.625Z,27.40
2019-04-22T15:51:04.943Z,27.60
2019-04-22T15:53:33.765Z,27.70
2019-04-22T15:56:03.056Z,27.70
2019-04-22T15:58:31.551Z,27.60
2019-04-22T16:01:11.978Z,27.40
2019-04-22T16:03:30.128Z,27.20
2019-04-22T16:05:59.706Z,27.00
2019-04-22T16:08:29.345Z,26.80
2019-04-22T16:10:59.863Z,26.50
2019-04-22T16:13:32.029Z,26.20
2019-04-22T16:15:58.725Z,25.80
2019-04-22T16:18:28.422Z,25.40
2019-04-22T16:20:58.686Z,25.00
2019-04-22T16:23:44.671Z,24.60
2019-04-22T16:26:15.324Z,24.30
2019-04-22T16:28:45.165Z,24.10
2019-04-22T16:31:13.747Z,23.90
2019-04-22T16:33:45.646Z,23.70
2019-04-22T16:36:13.150Z,23.60
2019-04-22T16:38:42.798Z,23.50
2019-04-22T16:41:12.696Z,23.30
2019-04-22T16:43:42.717Z,23.10
2019-04-22T16:46:11.703Z,22.90
2019-04-22T16:48:40.181Z,22.80
2019-04-22T16:51:09.897Z,22.70
2019-04-22T16:53:38.983Z,22.70
2019-04-22T16:56:08.822Z,22.70
2019-04-22T16:58:38.744Z,22.60
2019-04-22T17:01:10.251Z,22.60
2019-04-22T17:03:56.758Z,22.50
2019-04-22T17:06:27.648Z,22.50
2019-04-22T17:08:57.131Z,22.50
2019-04-22T17:11:25.767Z,22.40
2019-04-22T17:13:55.177Z,22.30
2019-04-22T17:16:24.381Z,22.20
2019-04-22T17:18:54.222Z,22.10
2019-04-22T17:21:23.638Z,22.00
2019-04-22T17:23:53.837Z,21.80
2019-04-22T17:26:22.398Z,21.70
2019-04-22T17:28:51.382Z,21.50
2019-04-22T17:31:20.585Z,21.30
2019-04-22T17:33:49.085Z,21.10
2019-04-22T17:36:18.302Z,21.00
2019-04-22T17:38:55.071Z,20.80
2019-04-22T17:41:30.229Z,20.80
2019-04-22T17:44:15.326Z,20.90
2019-04-22T17:46:40.402Z,20.90
2019-04-22T17:49:37.343Z,20.80
2019-04-22T17:54:47.841Z,20.30
2019-04-22T17:57:21.577Z,20.00
2019-04-22T17:59:46.944Z,19.80
2019-04-22T18:02:15.588Z,19.30
2019-04-22T18:04:40.229Z,19.30
2019-04-22T18:07:23.407Z,19.10
2019-04-22T18:10:16.140Z,18.90
2019-04-22T18:12:27.150Z,18.70
2019-04-22T18:14:54.691Z,18.50
2019-04-22T18:17:25.419Z,18.40
2019-04-22T18:19:50.836Z,18.00
2019-04-22T18:22:16.177Z,17.90
2019-04-22T18:24:49.318Z,17.60
2019-04-22T18:27:34.722Z,17.40
2019-04-22T18:29:49.503Z,17.30
2019-04-22T18:32:10.015Z,17.10
2019-04-22T18:34:47.037Z,16.90
2019-04-22T18:37:18.139Z,16.80
2019-04-22T18:39:54.163Z,16.60
2019-04-22T18:42:16.880Z,16.50
2019-04-22T18:45:10.895Z,16.40
2019-04-22T18:47:18.793Z,16.30
2019-04-22T18:49:49.242Z,16.20
2019-04-22T18:52:28.142Z,16.10
2019-04-22T18:55:07.197Z,16.00
2019-04-22T18:57:52.121Z,15.90
2019-04-22T19:00:12.691Z,15.80
2019-04-22T19:02:50.967Z,15.60
2019-04-22T19:05:27.914Z,15.50
2019-04-22T19:08:12.651Z,15.30
2019-04-22T19:10:50.044Z,15.10
2019-04-22T19:13:34.815Z,14.80
2019-04-22T19:15:40.894Z,14.60
2019-04-22T19:18:10.745Z,14.40
2019-04-22T19:20:42.866Z,14.20
2019-04-22T19:23:12.882Z,14.00
2019-04-22T19:25:33.278Z,13.80
2019-04-22T19:28:18.961Z,13.60
2019-04-22T19:30:41.537Z,13.40
2019-04-22T19:33:11.237Z,13.30
2019-04-22T19:35:34.902Z,13.10
2019-04-22T19:38:03.382Z,12.90
2019-04-22T19:40:55.547Z,12.80
2019-04-22T19:43:15.488Z,12.70
2019-04-22T19:45:44.375Z,12.60
2019-04-22T19:48:23.371Z,12.40
2019-04-22T19:50:54.422Z,12.30
2019-04-22T19:53:19.372Z,12.30
2019-04-22T19:55:46.509Z,12.20
2019-04-22T19:58:17.752Z,12.10
2019-04-22T20:00:49.459Z,12.10
2019-04-22T20:03:49.771Z,12.10
2019-04-22T20:06:01.327Z,12.20
2019-04-22T20:08:31.647Z,12.30
2019-04-22T20:11:03.682Z,12.30
2019-04-22T20:13:38.000Z,12.30
2019-04-22T20:15:53.461Z,12.30
2019-04-22T20:21:04.209Z,12.10
2019-04-22T20:23:26.802Z,12.10
2019-04-22T20:25:58.825Z,12.10
2019-04-22T20:28:32.298Z,12.10
2019-04-22T20:31:06.763Z,12.20
2019-04-22T20:33:43.055Z,12.20
2019-04-22T20:36:03.830Z,12.30
2019-04-22T20:38:30.711Z,12.30
2019-04-22T20:40:58.603Z,12.30
2019-04-22T20:43:44.760Z,12.40
2019-04-22T20:46:05.880Z,12.50
2019-04-22T20:48:40.454Z,12.60
2019-04-22T20:51:09.954Z,12.60
2019-04-22T20:53:36.198Z,12.60
2019-04-22T20:56:06.815Z,12.60
2019-04-22T20:58:33.010Z,12.50
2019-04-22T21:00:57.333Z,12.50
2019-04-22T21:03:26.646Z,12.40
2019-04-22T21:05:54.693Z,12.40
2019-04-22T21:08:38.531Z,12.40
2019-04-22T21:10:57.899Z,12.40
2019-04-22T21:13:28.748Z,12.40
2019-04-22T21:16:08.976Z,12.50
2019-04-22T21:18:33.301Z,12.50
2019-04-22T21:21:09.200Z,12.50
2019-04-22T21:23:29.717Z,12.50
2019-04-22T21:26:02.285Z,12.60
2019-04-22T21:28:38.834Z,12.60
2019-04-22T21:31:05.750Z,12.60
2019-04-22T21:33:36.609Z,12.60
2019-04-22T21:36:28.338Z,12.60
2019-04-22T21:38:42.411Z,12.60
2019-04-22T21:41:06.514Z,12.60
2019-04-22T21:43:38.537Z,12.60
2019-04-22T21:46:08.786Z,12.70
2019-04-22T21:48:57.969Z,12.80
2019-04-22T21:51:16.246Z,12.80
2019-04-22T21:53:43.351Z,12.80
2019-04-22T21:56:23.968Z,12.80
2019-04-22T21:58:57.342Z,12.80
2019-04-22T22:01:37.558Z,12.80
2019-04-22T22:04:03.089Z,12.70
2019-04-22T22:06:20.100Z,12.80
2019-04-22T22:09:02.449Z,12.80
2019-04-22T22:11:27.842Z,12.80
2019-04-22T22:13:55.318Z,12.80
2019-04-22T22:16:22.958Z,12.80
2019-04-22T22:19:00.904Z,12.80
2019-04-22T22:24:06.102Z,12.60
2019-04-22T22:26:35.106Z,12.50
2019-04-22T22:29:05.334Z,12.50
2019-04-22T22:31:38.165Z,12.40
2019-04-22T22:34:03.332Z,12.30
2019-04-22T22:36:23.639Z,12.20
2019-04-22T22:38:51.667Z,12.10
2019-04-22T22:41:11.825Z,12.00
2019-04-22T22:43:45.353Z,11.90
2019-04-22T22:46:22.804Z,11.90
2019-04-22T22:49:08.162Z,11.80
2019-04-22T22:51:43.117Z,11.80
2019-04-22T22:54:03.838Z,11.70
2019-04-22T22:56:39.742Z,11.70
2019-04-22T22:58:58.648Z,11.70
2019-04-22T23:01:37.396Z,11.60
2019-04-22T23:04:05.682Z,11.60
2019-04-22T23:06:40.683Z,11.60
2019-04-22T23:09:05.693Z,11.50
2019-04-22T23:11:52.548Z,11.50
2019-04-22T23:14:03.932Z,11.50
2019-04-22T23:16:22.090Z,11.50
2019-04-22T23:18:59.899Z,11.50
2019-04-22T23:21:36.611Z,11.50
2019-04-22T23:24:20.379Z,11.50
2019-04-22T23:26:45.653Z,11.50
2019-04-22T23:29:26.241Z,11.40
2019-04-22T23:32:00.662Z,11.40
2019-04-22T23:34:24.970Z,11.30
2019-04-22T23:37:05.347Z,11.40
2019-04-22T23:39:51.527Z,11.40
2019-04-22T23:42:15.949Z,11.40
2019-04-22T23:44:42.347Z,11.30
2019-04-22T23:47:07.262Z,11.30
2019-04-22T23:49:32.613Z,11.30
2019-04-22T23:52:14.718Z,11.30
2019-04-22T23:54:49.675Z,11.30
2019-04-22T23:57:09.337Z,11.30
